Terminal Aerodrome Forecast
Issued by NWS

Home | Current Version | Previous Version | Graphics & Text | Print | Product List | Glossary On
Versions: 1 2 3 4 5 6 7 8 9 10 11 12 13 14
277
FTUS43 KMPX 191720
TAFRWF
TAF
KRWF 191720Z 1918/2018 20007KT P6SM BKN200
     FM192100 27008KT P6SM BKN200
     FM200400 29004KT P6SM BKN150
     FM201300 29004KT P6SM SCT100 BKN200=

USA.gov is the U.S. government's official web portal to all federal, state and local government web resources and services.